PWSweather.com
Personal Weather Stations
Station Observations
133525
French Quarters West Seneca , West Seneca, NY 14224

French Quarters West Seneca West Seneca, NY 14224

Lat: 42.850058, Lon: -78.799754

Elevation: 603

Station Type: Davis Vantage Vue pro2

http://westsenecaweather.com/

Latest ConditionsUpdated 8:00:02 AM EDT Friday, Jun 23, 2017
Currently Today's Max Today's Min Today's Average
Temperature 75.2°F24.0°C 78.1°F25.6°C 74.3°F23.5°C 75.9°F24.4°C
Dew Point 68.2°F20.1°C 70.3°F21.3°C 68.0°F20.0°C 68.8°F20.4°C
Winds 4.6 mph S7.4 kmh S 6.9 mph SSE11.1 kmh SSE - 3.3 mph 5.3 kmh
Wind Gusts 11.5 mph18.5 kmh 12.7 mph20.4 kmh - -
Humidity 79% 82% 75% 79%
Pressure 29.65 in1004.1 mb 29.75 in1007.5 mb 29.65 in1004.1 mb -
Hour Temp Dew Point Humidity Winds Wind Gusts Pressure Precip Precip Rate Daily Precip Total
08:00 AM 75.2°F24.0°C 68.2°F20.1°C 79% 4.6 mph S7.4 kmh S 11.5 mph18.5 kmh 29.65 in1004.1 mb - 0.00 in0.0 mm 0.00 in0.0 mm
07:50 AM 75.0°F23.9°C 68.4°F20.2°C 80% 3.5 mph SSE5.6 kmh SSE 3.5 mph5.6 kmh 29.65 in1004.1 mb - 0.00 in0.0 mm 0.00 in0.0 mm
07:40 AM 74.8°F23.8°C 68.2°F20.1°C 80% 5.8 mph S9.3 kmh S 8.1 mph13.0 kmh 29.65 in1004.1 mb - 0.00 in0.0 mm 0.00 in0.0 mm
07:30 AM 74.6°F23.7°C 68.4°F20.2°C 81% 2.3 mph S3.7 kmh S 3.5 mph5.6 kmh 29.66 in1004.4 mb - 0.00 in0.0 mm 0.00 in0.0 mm
07:20 AM 74.5°F23.6°C 68.6°F20.3°C 82% 2.3 mph SSE3.7 kmh SSE 6.9 mph11.1 kmh 29.66 in1004.4 mb - 0.00 in0.0 mm 0.00 in0.0 mm
07:10 AM 74.3°F23.5°C 68.4°F20.2°C 82% 1.2 mph S1.9 kmh S 3.5 mph5.6 kmh 29.66 in1004.4 mb - 0.00 in0.0 mm 0.00 in0.0 mm
07:00 AM 74.3°F23.5°C 68.1°F20.1°C 81% 2.3 mph S3.7 kmh S 3.5 mph5.6 kmh 29.66 in1004.4 mb - 0.00 in0.0 mm 0.00 in0.0 mm
06:50 AM 74.5°F23.6°C 68.3°F20.2°C 81% 1.2 mph S1.9 kmh S 3.5 mph5.6 kmh 29.66 in1004.4 mb - 0.00 in0.0 mm 0.00 in0.0 mm
06:40 AM 74.4°F23.6°C 68.2°F20.1°C 81% 1.2 mph S1.9 kmh S 2.3 mph3.7 kmh 29.66 in1004.4 mb - 0.00 in0.0 mm 0.00 in0.0 mm
06:30 AM 74.3°F23.5°C 68.1°F20.1°C 81% 2.3 mph SSE3.7 kmh SSE 3.5 mph5.6 kmh 29.66 in1004.4 mb - 0.00 in0.0 mm 0.00 in0.0 mm
06:20 AM 74.4°F23.6°C 68.2°F20.1°C 81% 1.2 mph S1.9 kmh S 3.5 mph5.6 kmh 29.66 in1004.4 mb - 0.00 in0.0 mm 0.00 in0.0 mm
06:10 AM 74.6°F23.7°C 68.0°F20.0°C 80% 2.3 mph S3.7 kmh S 5.8 mph9.3 kmh 29.67 in1004.7 mb - 0.00 in0.0 mm 0.00 in0.0 mm
06:00 AM 74.7°F23.7°C 68.1°F20.1°C 80% 3.5 mph S5.6 kmh S 4.6 mph7.4 kmh 29.67 in1004.7 mb - 0.00 in0.0 mm 0.00 in0.0 mm
05:50 AM 74.9°F23.8°C 68.3°F20.2°C 80% 2.3 mph SSE3.7 kmh SSE 3.5 mph5.6 kmh 29.67 in1004.7 mb - 0.00 in0.0 mm 0.00 in0.0 mm
05:40 AM 75.0°F23.9°C 68.4°F20.2°C 80% 4.6 mph S7.4 kmh S 6.9 mph11.1 kmh 29.67 in1004.7 mb - 0.00 in0.0 mm 0.00 in0.0 mm
05:30 AM 75.2°F24.0°C 68.6°F20.3°C 80% 3.5 mph S5.6 kmh S 6.9 mph11.1 kmh 29.67 in1004.7 mb - 0.00 in0.0 mm 0.00 in0.0 mm
05:20 AM 75.4°F24.1°C 68.8°F20.4°C 80% 3.5 mph S5.6 kmh S 5.8 mph9.3 kmh 29.67 in1004.7 mb - 0.00 in0.0 mm 0.00 in0.0 mm
05:10 AM 75.4°F24.1°C 68.8°F20.4°C 80% 2.3 mph S3.7 kmh S 3.5 mph5.6 kmh 29.68 in1005.1 mb - 0.00 in0.0 mm 0.00 in0.0 mm
05:00 AM 75.6°F24.2°C 69.0°F20.6°C 80% 3.5 mph S5.6 kmh S 4.6 mph7.4 kmh 29.68 in1005.1 mb - 0.00 in0.0 mm 0.00 in0.0 mm
04:50 AM 75.9°F24.4°C 68.9°F20.5°C 79% 2.3 mph S3.7 kmh S 3.5 mph5.6 kmh 29.68 in1005.1 mb - 0.00 in0.0 mm 0.00 in0.0 mm
04:40 AM 76.0°F24.4°C 69.0°F20.6°C 79% 3.5 mph S5.6 kmh S 3.5 mph5.6 kmh 29.68 in1005.1 mb - 0.00 in0.0 mm 0.00 in0.0 mm
04:30 AM 76.0°F24.4°C 69.0°F20.6°C 79% 4.6 mph S7.4 kmh S 6.9 mph11.1 kmh 29.69 in1005.4 mb - 0.00 in0.0 mm 0.00 in0.0 mm
04:20 AM 76.0°F24.4°C 69.0°F20.6°C 79% 4.6 mph S7.4 kmh S 5.8 mph9.3 kmh 29.69 in1005.4 mb - 0.00 in0.0 mm 0.00 in0.0 mm
04:10 AM 76.1°F24.5°C 69.1°F20.6°C 79% 2.3 mph S3.7 kmh S 4.6 mph7.4 kmh 29.69 in1005.4 mb - 0.00 in0.0 mm 0.00 in0.0 mm
04:00 AM 76.2°F24.6°C 69.2°F20.7°C 79% 2.3 mph SSW3.7 kmh SSW 5.8 mph9.3 kmh 29.70 in1005.8 mb - 0.00 in0.0 mm 0.00 in0.0 mm
03:50 AM 76.2°F24.6°C 69.2°F20.7°C 79% 4.6 mph S7.4 kmh S 9.2 mph14.8 kmh 29.70 in1005.8 mb - 0.00 in0.0 mm 0.00 in0.0 mm
03:40 AM 76.2°F24.6°C 69.2°F20.7°C 79% 4.6 mph S7.4 kmh S 10.4 mph16.7 kmh 29.70 in1005.8 mb - 0.00 in0.0 mm 0.00 in0.0 mm
03:30 AM 76.2°F24.6°C 69.3°F20.7°C 79% 3.5 mph S5.6 kmh S 6.9 mph11.1 kmh 29.70 in1005.8 mb - 0.00 in0.0 mm 0.00 in0.0 mm
03:20 AM 76.2°F24.6°C 69.2°F20.7°C 79% 4.6 mph S7.4 kmh S 12.7 mph20.4 kmh 29.70 in1005.8 mb - 0.00 in0.0 mm 0.00 in0.0 mm
03:10 AM 75.9°F24.4°C 69.3°F20.7°C 80% 1.2 mph S1.9 kmh S 6.9 mph11.1 kmh 29.70 in1005.8 mb - 0.00 in0.0 mm 0.00 in0.0 mm
03:00 AM 75.4°F24.1°C 69.1°F20.6°C 81% 3.5 mph S5.6 kmh S 9.2 mph14.8 kmh 29.70 in1005.8 mb - 0.00 in0.0 mm 0.00 in0.0 mm
02:50 AM 74.9°F23.8°C 68.7°F20.4°C 81% 1.2 mph S1.9 kmh S 3.5 mph5.6 kmh 29.70 in1005.8 mb - 0.00 in0.0 mm 0.00 in0.0 mm
02:40 AM 75.0°F23.9°C 68.8°F20.4°C 81% 2.3 mph S3.7 kmh S 6.9 mph11.1 kmh 29.71 in1006.1 mb - 0.00 in0.0 mm 0.00 in0.0 mm
02:30 AM 75.1°F23.9°C 68.8°F20.4°C 81% 2.3 mph S3.7 kmh S 3.5 mph5.6 kmh 29.71 in1006.1 mb - 0.00 in0.0 mm 0.00 in0.0 mm
02:20 AM 75.4°F24.1°C 68.8°F20.4°C 80% 2.3 mph S3.7 kmh S 3.5 mph5.6 kmh 29.71 in1006.1 mb - 0.00 in0.0 mm 0.00 in0.0 mm
02:10 AM 76.0°F24.4°C 69.0°F20.6°C 79% 2.3 mph S3.7 kmh S 3.5 mph5.6 kmh 29.72 in1006.4 mb - 0.00 in0.0 mm 0.00 in0.0 mm
02:00 AM 76.7°F24.8°C 68.9°F20.5°C 77% 2.3 mph S3.7 kmh S 4.6 mph7.4 kmh 29.72 in1006.4 mb - 0.00 in0.0 mm 0.00 in0.0 mm
01:50 AM 76.8°F24.9°C 69.0°F20.6°C 77% 1.2 mph SW1.9 kmh SW 6.9 mph11.1 kmh 29.73 in1006.8 mb - 0.00 in0.0 mm 0.00 in0.0 mm
01:40 AM 76.9°F24.9°C 69.1°F20.6°C 77% 3.5 mph S5.6 kmh S 8.1 mph13.0 kmh 29.73 in1006.8 mb - 0.00 in0.0 mm 0.00 in0.0 mm
01:30 AM 77.1°F25.1°C 68.9°F20.5°C 76% 4.6 mph S7.4 kmh S 10.4 mph16.7 kmh 29.73 in1006.8 mb - 0.00 in0.0 mm 0.00 in0.0 mm
01:20 AM 77.2°F25.1°C 69.1°F20.6°C 76% 4.6 mph S7.4 kmh S 6.9 mph11.1 kmh 29.73 in1006.8 mb - 0.00 in0.0 mm 0.00 in0.0 mm
01:10 AM 77.5°F25.3°C 68.9°F20.5°C 75% 6.9 mph S11.1 kmh S 11.5 mph18.5 kmh 29.73 in1006.8 mb - 0.00 in0.0 mm 0.00 in0.0 mm
01:00 AM 77.5°F25.3°C 68.9°F20.5°C 75% 3.5 mph S5.6 kmh S 6.9 mph11.1 kmh 29.73 in1006.8 mb - 0.00 in0.0 mm 0.00 in0.0 mm
12:50 AM 77.6°F25.3°C 69.1°F20.6°C 75% 4.6 mph S7.4 kmh S 4.6 mph7.4 kmh 29.73 in1006.8 mb - 0.00 in0.0 mm 0.00 in0.0 mm
12:40 AM 77.9°F25.5°C 69.4°F20.8°C 75% 4.6 mph S7.4 kmh S 6.9 mph11.1 kmh 29.73 in1006.8 mb - 0.00 in0.0 mm 0.00 in0.0 mm
12:30 AM 78.1°F25.6°C 69.5°F20.8°C 75% 3.5 mph S5.6 kmh S 8.1 mph13.0 kmh 29.74 in1007.1 mb - 0.00 in0.0 mm 0.00 in0.0 mm
12:20 AM 78.1°F25.6°C 69.9°F21.1°C 76% 4.6 mph S7.4 kmh S 9.2 mph14.8 kmh 29.74 in1007.1 mb - 0.00 in0.0 mm 0.00 in0.0 mm
12:10 AM 78.1°F25.6°C 69.9°F21.1°C 76% 3.5 mph S5.6 kmh S 4.6 mph7.4 kmh 29.75 in1007.5 mb - 0.00 in0.0 mm 0.00 in0.0 mm
12:00 AM 78.1°F25.6°C 70.3°F21.3°C 77% 6.9 mph SSE11.1 kmh SSE 10.4 mph16.7 kmh 29.75 in1007.5 mb - 0.00 in0.0 mm 0.00 in0.0 mm